createdAt,value
2022-08-04T00:00:02.728Z,3.53
2022-08-04T00:02:49.429Z,3.31
2022-08-04T00:05:34.928Z,3.21
2022-08-04T00:08:07.804Z,3.29
2022-08-04T00:10:37.806Z,3.30
2022-08-04T00:13:04.950Z,3.24
2022-08-04T00:15:33.337Z,3.19
2022-08-04T00:18:03.794Z,3.50
2022-08-04T00:20:34.698Z,3.33
2022-08-04T00:23:02.415Z,3.21
2022-08-04T00:25:29.198Z,3.29
2022-08-04T00:27:55.979Z,3.28
2022-08-04T00:30:23.186Z,3.29
2022-08-04T00:32:49.772Z,3.61
2022-08-04T00:35:17.191Z,3.30
2022-08-04T00:37:47.499Z,3.28
2022-08-04T00:40:24.102Z,3.43
2022-08-04T00:43:06.268Z,3.55
2022-08-04T00:46:15.155Z,3.51
2022-08-04T00:48:25.825Z,3.45
2022-08-04T00:51:12.005Z,3.53
2022-08-04T00:53:57.201Z,3.45
2022-08-04T00:56:27.502Z,3.42
2022-08-04T00:59:13.715Z,3.26
2022-08-04T01:01:43.065Z,3.09
2022-08-04T01:04:12.525Z,3.32
2022-08-04T01:06:39.108Z,2.97
2022-08-04T01:09:24.462Z,3.15
2022-08-04T01:11:56.420Z,3.34
2022-08-04T01:14:47.900Z,3.08
2022-08-04T01:17:33.183Z,3.10
2022-08-04T01:20:10.709Z,3.20
2022-08-04T01:22:40.216Z,3.24
2022-08-04T01:25:19.000Z,3.00
2022-08-04T01:27:48.546Z,2.99
2022-08-04T01:30:16.104Z,3.02
2022-08-04T01:32:49.716Z,3.18
2022-08-04T01:35:46.264Z,3.04
2022-08-04T01:38:23.943Z,3.14
2022-08-04T01:40:55.403Z,3.15
2022-08-04T01:43:23.608Z,3.11
2022-08-04T01:45:51.702Z,2.91
2022-08-04T01:48:24.328Z,3.03
2022-08-04T01:50:53.235Z,2.92
2022-08-04T01:53:21.133Z,3.06
2022-08-04T01:55:54.499Z,3.02
2022-08-04T01:58:23.885Z,3.43
2022-08-04T02:01:04.932Z,3.63
2022-08-04T02:04:19.751Z,3.85
2022-08-04T02:06:31.801Z,3.48
2022-08-04T02:09:12.685Z,3.71
2022-08-04T02:11:41.202Z,3.76
2022-08-04T02:14:12.604Z,3.68
2022-08-04T02:16:52.357Z,3.62
2022-08-04T02:19:22.336Z,3.62
2022-08-04T02:21:51.987Z,3.73
2022-08-04T02:24:22.299Z,3.37
2022-08-04T02:26:52.456Z,3.55
2022-08-04T02:29:28.178Z,3.50
2022-08-04T02:32:03.446Z,3.62
2022-08-04T02:34:38.940Z,3.63
2022-08-04T02:37:07.139Z,3.73
2022-08-04T02:39:47.957Z,3.43
2022-08-04T02:42:16.809Z,3.53
2022-08-04T02:44:43.438Z,3.45
2022-08-04T02:47:11.710Z,3.61
2022-08-04T02:49:41.231Z,3.55
2022-08-04T02:52:10.705Z,3.52
2022-08-04T02:54:40.266Z,3.32
2022-08-04T02:57:11.784Z,3.31
2022-08-04T02:59:50.301Z,3.32
2022-08-04T03:02:27.197Z,3.67
2022-08-04T03:05:06.774Z,3.63
2022-08-04T03:07:45.310Z,3.57
2022-08-04T03:10:30.624Z,3.34
2022-08-04T03:12:58.723Z,3.50
2022-08-04T03:15:37.707Z,3.52
2022-08-04T03:18:04.190Z,3.82
2022-08-04T03:20:57.100Z,3.35
2022-08-04T03:23:42.160Z,3.62
2022-08-04T03:26:21.696Z,3.49
2022-08-04T03:28:48.247Z,3.34
2022-08-04T03:31:17.738Z,3.50
2022-08-04T03:34:03.207Z,3.55
2022-08-04T03:36:47.264Z,3.72
2022-08-04T03:39:39.252Z,3.83
2022-08-04T03:42:34.282Z,3.75
2022-08-04T03:45:23.482Z,3.62
2022-08-04T03:47:50.816Z,3.41
2022-08-04T03:50:17.277Z,3.26
2022-08-04T03:53:10.250Z,3.15
2022-08-04T03:55:39.845Z,3.30
2022-08-04T03:58:12.622Z,3.26
2022-08-04T04:00:57.896Z,3.57
2022-08-04T04:03:29.139Z,3.47
2022-08-04T04:05:58.789Z,3.39
2022-08-04T04:08:28.913Z,3.26
2022-08-04T04:11:17.568Z,3.46
2022-08-04T04:13:46.878Z,3.64
2022-08-04T04:16:33.810Z,3.14
2022-08-04T04:19:18.853Z,3.46
2022-08-04T04:21:45.325Z,3.37
2022-08-04T04:24:32.801Z,3.40
2022-08-04T04:27:19.686Z,3.24
2022-08-04T04:30:00.607Z,3.34
2022-08-04T04:32:29.894Z,3.51
2022-08-04T04:34:56.376Z,3.57
2022-08-04T04:37:48.892Z,3.39
2022-08-04T04:40:21.972Z,3.30
2022-08-04T04:42:54.244Z,3.43
2022-08-04T04:45:32.941Z,3.19
2022-08-04T04:48:29.246Z,3.09
2022-08-04T04:50:55.707Z,3.14
2022-08-04T04:53:36.179Z,3.13
2022-08-04T04:56:12.182Z,3.07
2022-08-04T04:58:39.892Z,3.11
2022-08-04T05:01:25.789Z,2.77
2022-08-04T05:04:10.986Z,2.97
2022-08-04T05:06:40.561Z,2.68
2022-08-04T05:09:10.102Z,2.81
2022-08-04T05:11:55.700Z,2.93
2022-08-04T05:14:35.503Z,2.89
2022-08-04T05:17:28.608Z,2.97
2022-08-04T05:20:21.509Z,2.66
2022-08-04T05:22:53.898Z,2.78
2022-08-04T05:25:24.562Z,2.72
2022-08-04T05:28:14.398Z,2.71
2022-08-04T05:30:48.714Z,2.87
2022-08-04T05:33:32.890Z,2.94
2022-08-04T05:36:19.058Z,3.05
2022-08-04T05:38:54.998Z,2.77
2022-08-04T05:41:22.874Z,2.84
2022-08-04T05:43:58.936Z,2.87
2022-08-04T05:46:27.231Z,2.80
2022-08-04T05:48:54.400Z,2.63
2022-08-04T05:51:21.327Z,2.79
2022-08-04T05:53:49.084Z,2.77
2022-08-04T05:56:16.651Z,2.67
2022-08-04T05:58:44.656Z,2.94
2022-08-04T06:01:12.967Z,2.93
2022-08-04T06:03:41.287Z,2.79
2022-08-04T06:06:11.234Z,3.03
2022-08-04T06:08:37.837Z,3.18
2022-08-04T06:11:06.332Z,2.81
2022-08-04T06:13:51.232Z,2.88
2022-08-04T06:16:30.166Z,2.80
2022-08-04T06:20:02.799Z,3.07
2022-08-04T06:21:50.402Z,2.91
2022-08-04T06:24:22.770Z,2.81
2022-08-04T06:26:50.165Z,2.87
2022-08-04T06:29:30.696Z,3.01
2022-08-04T06:32:29.737Z,2.81
2022-08-04T06:34:50.367Z,2.94
2022-08-04T06:37:41.456Z,2.66
2022-08-04T06:40:29.862Z,2.83
2022-08-04T06:42:52.768Z,2.65
2022-08-04T06:45:20.428Z,2.67
2022-08-04T06:47:48.779Z,2.56
2022-08-04T06:51:25.044Z,2.59
2022-08-04T06:53:03.539Z,2.84
2022-08-04T06:55:32.004Z,2.86
2022-08-04T06:58:03.384Z,3.22
2022-08-04T07:00:31.813Z,2.94
2022-08-04T07:02:59.280Z,2.95
2022-08-04T07:05:26.518Z,3.22
2022-08-04T07:07:57.214Z,3.16
2022-08-04T07:10:25.361Z,2.73
2022-08-04T07:12:53.821Z,2.92
2022-08-04T07:15:21.342Z,3.36
2022-08-04T07:17:52.018Z,3.41
2022-08-04T07:20:34.484Z,3.27
2022-08-04T07:23:03.340Z,3.46
2022-08-04T07:25:58.566Z,3.32
2022-08-04T07:28:16.839Z,2.88
2022-08-04T07:30:44.195Z,3.19
2022-08-04T07:33:11.243Z,3.83
2022-08-04T07:36:09.699Z,3.40
2022-08-04T07:38:27.406Z,3.21
2022-08-04T07:40:55.311Z,3.14
2022-08-04T07:43:23.273Z,3.10
2022-08-04T07:45:50.101Z,2.99
2022-08-04T07:48:18.852Z,3.26
2022-08-04T07:50:46.994Z,3.28
2022-08-04T07:53:55.311Z,3.37
2022-08-04T07:56:01.721Z,3.06
2022-08-04T07:58:30.346Z,2.64
2022-08-04T08:00:57.416Z,2.64
2022-08-04T08:03:25.085Z,2.73
2022-08-04T08:06:17.787Z,2.67
2022-08-04T08:08:39.535Z,2.36
2022-08-04T08:11:07.379Z,2.15
2022-08-04T08:13:34.647Z,2.22
2022-08-04T08:16:02.514Z,2.26
2022-08-04T08:18:30.179Z,2.26
2022-08-04T08:20:57.002Z,2.05
2022-08-04T08:23:24.575Z,2.27
2022-08-04T08:25:51.618Z,2.23
2022-08-04T08:28:18.481Z,2.20
2022-08-04T08:30:45.102Z,2.29
2022-08-04T08:33:20.778Z,2.28
2022-08-04T08:36:01.636Z,2.29
2022-08-04T08:38:48.519Z,2.40
2022-08-04T08:41:33.396Z,2.04
2022-08-04T08:44:29.729Z,2.15
2022-08-04T08:46:59.772Z,1.97
2022-08-04T08:50:00.196Z,2.15
2022-08-04T08:52:57.399Z,1.94
2022-08-04T08:55:24.170Z,2.05
2022-08-04T08:58:00.195Z,2.37
2022-08-04T09:00:31.610Z,1.90
2022-08-04T09:03:37.051Z,1.81
2022-08-04T09:06:26.295Z,1.85
2022-08-04T09:09:06.468Z,1.84
2022-08-04T09:11:49.068Z,1.92
2022-08-04T09:14:28.001Z,1.88
2022-08-04T09:17:02.940Z,1.73
2022-08-04T09:19:39.271Z,1.62
2022-08-04T09:22:10.704Z,1.75
2022-08-04T09:25:02.882Z,1.63
2022-08-04T09:27:44.566Z,1.58
2022-08-04T09:30:13.439Z,1.61
2022-08-04T09:33:06.290Z,1.52
2022-08-04T09:36:02.307Z,1.47
2022-08-04T09:38:40.884Z,1.72
2022-08-04T09:41:33.949Z,1.52
2022-08-04T09:44:51.293Z,1.58
2022-08-04T09:47:14.360Z,1.59
2022-08-04T09:49:50.728Z,1.51
2022-08-04T09:52:37.442Z,1.48
2022-08-04T09:55:24.284Z,1.63
2022-08-04T09:58:01.681Z,1.53
2022-08-04T10:00:40.706Z,1.53
2022-08-04T10:03:12.132Z,1.48
2022-08-04T10:05:40.220Z,1.58
2022-08-04T10:08:19.257Z,1.57
2022-08-04T10:11:03.909Z,1.49
2022-08-04T10:13:42.377Z,1.40
2022-08-04T10:16:20.989Z,1.54
2022-08-04T10:18:51.022Z,1.33
2022-08-04T10:21:26.817Z,1.27
2022-08-04T10:24:07.674Z,1.65
2022-08-04T10:26:46.312Z,1.55
2022-08-04T10:29:18.229Z,1.60
2022-08-04T10:31:59.805Z,1.57
2022-08-04T10:34:29.621Z,1.57
2022-08-04T10:36:58.963Z,1.57
2022-08-04T10:39:41.893Z,1.58
2022-08-04T10:42:19.583Z,1.68
2022-08-04T10:44:49.152Z,1.61
2022-08-04T10:47:21.840Z,1.54
2022-08-04T10:49:56.079Z,1.47
2022-08-04T10:52:22.616Z,1.60
2022-08-04T10:54:55.310Z,1.46
2022-08-04T10:57:44.224Z,1.53
2022-08-04T11:00:16.420Z,1.57
2022-08-04T11:02:45.797Z,1.73
2022-08-04T11:05:16.929Z,1.83
2022-08-04T11:07:45.732Z,1.75
2022-08-04T11:10:13.381Z,1.65
2022-08-04T11:12:42.871Z,1.64
2022-08-04T11:15:13.521Z,1.67
2022-08-04T11:17:47.726Z,1.61
2022-08-04T11:20:34.639Z,1.54
2022-08-04T11:23:10.515Z,1.72
2022-08-04T11:25:55.704Z,1.60
2022-08-04T11:28:30.564Z,1.48
2022-08-04T11:31:14.149Z,1.70
2022-08-04T11:34:02.484Z,1.36
2022-08-04T11:36:55.316Z,1.50
2022-08-04T11:39:28.818Z,1.62
2022-08-04T11:41:55.369Z,1.38
2022-08-04T11:44:31.763Z,2.24
2022-08-04T11:47:03.879Z,1.71
2022-08-04T11:49:57.379Z,1.44
2022-08-04T11:52:26.784Z,1.38
2022-08-04T11:54:54.619Z,1.48
2022-08-04T11:57:22.234Z,1.62
2022-08-04T11:59:56.716Z,1.47
2022-08-04T12:02:42.887Z,1.55
2022-08-04T12:05:09.906Z,1.41
2022-08-04T12:08:23.084Z,1.42
2022-08-04T12:11:12.859Z,1.47
2022-08-04T12:13:45.164Z,1.62
2022-08-04T12:16:17.705Z,1.69
2022-08-04T12:18:53.868Z,1.71
2022-08-04T12:21:31.860Z,1.31
2022-08-04T12:24:05.255Z,1.55
2022-08-04T12:26:43.622Z,1.26
2022-08-04T12:29:15.215Z,1.39
2022-08-04T12:31:45.985Z,1.39
2022-08-04T12:34:15.261Z,1.57
2022-08-04T12:36:53.790Z,1.56
2022-08-04T12:39:20.447Z,1.45
2022-08-04T12:42:00.524Z,1.48
2022-08-04T12:44:37.301Z,1.67
2022-08-04T12:47:27.512Z,1.58
2022-08-04T12:50:01.333Z,1.66
2022-08-04T12:55:18.976Z,1.58
2022-08-04T12:57:47.753Z,1.55
2022-08-04T13:00:26.247Z,1.51
2022-08-04T13:03:03.321Z,1.58
2022-08-04T13:05:31.844Z,1.54
2022-08-04T13:08:01.162Z,1.55
2022-08-04T13:10:30.286Z,1.75
2022-08-04T13:12:59.858Z,1.56
2022-08-04T13:15:29.209Z,1.29
2022-08-04T13:17:59.207Z,1.34
2022-08-04T13:20:27.748Z,1.32
2022-08-04T13:23:06.062Z,1.42
2022-08-04T13:26:43.168Z,1.32
2022-08-04T13:28:28.917Z,1.38
2022-08-04T13:30:58.845Z,1.47
2022-08-04T13:33:37.599Z,1.51
2022-08-04T13:36:06.760Z,1.58
2022-08-04T13:38:35.030Z,1.61
2022-08-04T13:41:04.744Z,1.66
2022-08-04T13:44:15.938Z,1.51
2022-08-04T13:46:27.703Z,1.60
2022-08-04T13:49:23.571Z,1.52
2022-08-04T13:51:58.185Z,1.68
2022-08-04T13:54:36.076Z,1.58
2022-08-04T13:57:23.653Z,1.39
2022-08-04T13:59:53.487Z,1.45
2022-08-04T14:02:37.848Z,1.40
2022-08-04T14:05:18.463Z,1.51
2022-08-04T14:07:47.217Z,1.40
2022-08-04T14:10:13.941Z,1.51
2022-08-04T14:12:47.127Z,1.53
2022-08-04T14:16:02.790Z,1.35
2022-08-04T14:18:29.720Z,1.41
2022-08-04T14:21:02.851Z,1.70
2022-08-04T14:23:34.813Z,1.51
2022-08-04T14:26:15.398Z,1.50
2022-08-04T14:29:08.517Z,1.41
2022-08-04T14:31:30.947Z,1.64
2022-08-04T14:34:01.063Z,1.52
2022-08-04T14:37:04.681Z,1.60
2022-08-04T14:40:18.267Z,1.58
2022-08-04T14:42:55.138Z,1.43
2022-08-04T14:45:34.854Z,1.54
2022-08-04T14:48:05.891Z,1.64
2022-08-04T14:50:34.035Z,1.51
2022-08-04T14:53:08.929Z,1.44
2022-08-04T14:55:35.856Z,1.47
2022-08-04T14:58:36.761Z,1.53
2022-08-04T15:00:50.123Z,1.39
2022-08-04T15:03:18.588Z,1.48
2022-08-04T15:05:55.269Z,1.49
2022-08-04T15:08:33.039Z,1.61
2022-08-04T15:11:02.490Z,1.67
2022-08-04T15:13:30.018Z,1.73
2022-08-04T15:16:07.746Z,1.61
2022-08-04T15:18:35.591Z,1.57
2022-08-04T15:21:02.828Z,1.59
2022-08-04T15:23:37.267Z,1.54
2022-08-04T15:26:09.392Z,1.54
2022-08-04T15:28:38.511Z,1.54
2022-08-04T15:31:10.293Z,1.49
2022-08-04T15:33:54.937Z,1.39
2022-08-04T15:36:27.716Z,1.48
2022-08-04T15:39:03.737Z,1.57
2022-08-04T15:41:55.315Z,1.43
2022-08-04T15:44:25.002Z,1.63
2022-08-04T15:46:51.481Z,1.48
2022-08-04T15:49:19.298Z,1.70
2022-08-04T15:51:46.455Z,1.56
2022-08-04T15:54:16.829Z,1.66
2022-08-04T15:57:01.264Z,1.66
2022-08-04T15:59:48.180Z,1.36
2022-08-04T16:02:33.196Z,1.47
2022-08-04T16:05:17.934Z,1.61
2022-08-04T16:08:04.728Z,1.54
2022-08-04T16:10:31.245Z,1.41
2022-08-04T16:12:59.396Z,1.46
2022-08-04T16:15:43.500Z,1.42
2022-08-04T16:18:25.480Z,1.40
2022-08-04T16:20:55.866Z,1.31
2022-08-04T16:23:51.374Z,1.49
2022-08-04T16:26:12.802Z,1.46
2022-08-04T16:28:41.084Z,1.61
2022-08-04T16:31:09.303Z,1.77
2022-08-04T16:33:43.577Z,1.68
2022-08-04T16:36:12.549Z,1.59
2022-08-04T16:38:58.143Z,1.70
2022-08-04T16:41:45.996Z,1.50
2022-08-04T16:44:52.047Z,1.66
2022-08-04T16:47:38.548Z,1.64
2022-08-04T16:50:05.517Z,1.53
2022-08-04T16:52:32.739Z,1.50
2022-08-04T16:54:59.618Z,1.57
2022-08-04T16:57:26.212Z,1.97
2022-08-04T16:59:52.983Z,2.69
2022-08-04T17:02:24.944Z,3.13
2022-08-04T17:05:06.601Z,3.23
2022-08-04T17:08:26.867Z,2.77
2022-08-04T17:10:40.098Z,3.20
2022-08-04T17:14:01.769Z,2.40
2022-08-04T17:16:18.306Z,1.93
2022-08-04T17:18:47.042Z,1.63
2022-08-04T17:21:15.520Z,1.63
2022-08-04T17:24:14.988Z,1.94
2022-08-04T17:26:40.025Z,2.03
2022-08-04T17:29:19.921Z,2.42
2022-08-04T17:31:46.818Z,3.68
2022-08-04T17:34:19.497Z,2.46
2022-08-04T17:36:47.939Z,2.16
2022-08-04T17:39:17.629Z,2.29
2022-08-04T17:41:49.243Z,2.55
2022-08-04T17:44:17.622Z,2.78
2022-08-04T17:46:48.006Z,2.81
2022-08-04T17:49:18.352Z,2.68
2022-08-04T17:52:06.564Z,2.48
2022-08-04T17:54:40.513Z,2.41
2022-08-04T17:57:15.819Z,2.51
2022-08-04T17:59:57.072Z,2.64
2022-08-04T18:02:34.975Z,2.61
2022-08-04T18:05:07.049Z,2.45
2022-08-04T18:08:35.375Z,2.39
2022-08-04T18:10:44.666Z,2.37
2022-08-04T18:13:21.988Z,2.47
2022-08-04T18:15:51.189Z,2.56
2022-08-04T18:18:20.565Z,2.58
2022-08-04T18:20:50.100Z,2.13
2022-08-04T18:23:17.038Z,2.40
2022-08-04T18:25:51.474Z,2.01
2022-08-04T18:28:26.800Z,2.02
2022-08-04T18:30:55.275Z,1.96
2022-08-04T18:33:40.419Z,1.97
2022-08-04T18:36:34.013Z,2.22
2022-08-04T18:39:12.094Z,2.13
2022-08-04T18:42:01.275Z,1.97
2022-08-04T18:44:29.061Z,2.06
2022-08-04T18:46:56.303Z,2.26
2022-08-04T18:52:15.139Z,2.66
2022-08-04T18:54:43.301Z,2.56
2022-08-04T18:57:32.225Z,3.11
2022-08-04T18:59:57.122Z,2.55
2022-08-04T19:02:26.472Z,2.67
2022-08-04T19:04:53.259Z,2.60
2022-08-04T19:07:29.449Z,2.51
2022-08-04T19:09:57.715Z,2.37
2022-08-04T19:12:28.162Z,2.19
2022-08-04T19:14:57.983Z,2.22
2022-08-04T19:17:53.399Z,2.52
2022-08-04T19:20:15.806Z,2.77
2022-08-04T19:24:30.399Z,2.89
2022-08-04T19:25:41.698Z,2.88
2022-08-04T19:28:29.567Z,2.66
2022-08-04T19:30:58.547Z,2.72
2022-08-04T19:33:25.578Z,2.73
2022-08-04T19:35:56.666Z,2.99
2022-08-04T19:38:23.721Z,2.72
2022-08-04T19:40:52.772Z,2.84
2022-08-04T19:43:20.815Z,2.74
2022-08-04T19:45:50.006Z,2.88
2022-08-04T19:48:19.611Z,2.90
2022-08-04T19:50:46.799Z,2.85
2022-08-04T19:53:19.105Z,2.87
2022-08-04T19:55:49.643Z,2.82
2022-08-04T19:58:17.890Z,3.08
2022-08-04T20:00:48.146Z,3.09
2022-08-04T20:03:18.618Z,2.75
2022-08-04T20:05:53.662Z,2.61
2022-08-04T20:08:23.872Z,2.87
2022-08-04T20:10:51.783Z,2.44
2022-08-04T20:13:19.344Z,2.75
2022-08-04T20:15:57.448Z,2.76
2022-08-04T20:18:36.782Z,2.69
2022-08-04T20:21:19.271Z,2.84
2022-08-04T20:23:51.310Z,2.93
2022-08-04T20:26:17.859Z,2.91
2022-08-04T20:31:31.464Z,3.09
2022-08-04T20:33:58.434Z,3.27
2022-08-04T20:36:25.508Z,3.07
2022-08-04T20:38:54.398Z,3.26
2022-08-04T20:41:21.749Z,3.49
2022-08-04T20:43:50.006Z,3.01
2022-08-04T20:46:29.448Z,3.31
2022-08-04T20:48:56.965Z,3.22
2022-08-04T20:51:31.918Z,2.92
2022-08-04T20:54:00.950Z,2.90
2022-08-04T20:56:31.268Z,2.81
2022-08-04T20:58:58.577Z,2.99
2022-08-04T21:01:27.162Z,2.95
2022-08-04T21:04:27.345Z,3.12
2022-08-04T21:06:55.398Z,3.06
2022-08-04T21:09:37.423Z,3.07
2022-08-04T21:12:08.828Z,3.14
2022-08-04T21:17:56.481Z,3.40
2022-08-04T21:20:12.683Z,3.53
2022-08-04T21:22:40.023Z,3.38
2022-08-04T21:25:07.707Z,3.65
2022-08-04T21:27:43.539Z,3.51
2022-08-04T21:30:26.016Z,3.39
2022-08-04T21:32:53.217Z,3.47
2022-08-04T21:35:22.528Z,3.38
2022-08-04T21:38:16.127Z,3.12
2022-08-04T21:40:50.702Z,3.25
2022-08-04T21:43:20.608Z,3.29
2022-08-04T21:45:50.652Z,3.53
2022-08-04T21:48:17.596Z,3.42
2022-08-04T21:50:44.122Z,3.28
2022-08-04T21:53:17.018Z,3.44
2022-08-04T21:56:06.794Z,2.96
2022-08-04T21:58:33.400Z,3.29
2022-08-04T22:00:59.958Z,2.99
2022-08-04T22:03:53.137Z,3.33
2022-08-04T22:06:17.428Z,3.33
2022-08-04T22:08:49.109Z,3.28
2022-08-04T22:11:50.297Z,3.50
2022-08-04T22:14:17.790Z,3.32
2022-08-04T22:16:56.397Z,3.40
2022-08-04T22:19:25.154Z,3.47
2022-08-04T22:22:06.746Z,3.56
2022-08-04T22:24:36.133Z,3.24
2022-08-04T22:27:10.451Z,3.46
2022-08-04T22:29:39.224Z,3.57
2022-08-04T22:32:11.201Z,3.46
2022-08-04T22:34:40.114Z,3.44
2022-08-04T22:37:12.745Z,3.63
2022-08-04T22:39:56.180Z,3.19
2022-08-04T22:42:23.715Z,3.07
2022-08-04T22:44:50.353Z,3.51
2022-08-04T22:47:20.457Z,3.41
2022-08-04T22:50:01.672Z,3.37
2022-08-04T22:52:36.645Z,3.24
2022-08-04T22:55:21.647Z,3.18
2022-08-04T22:58:04.826Z,3.19
2022-08-04T23:00:32.879Z,3.07
2022-08-04T23:02:59.548Z,3.27
2022-08-04T23:05:35.528Z,2.87
2022-08-04T23:08:04.235Z,3.08
2022-08-04T23:10:32.003Z,2.90
2022-08-04T23:12:59.535Z,2.97
2022-08-04T23:15:33.894Z,3.05
2022-08-04T23:18:00.719Z,2.69
2022-08-04T23:20:32.769Z,2.62
2022-08-04T23:23:14.783Z,2.74
2022-08-04T23:26:07.542Z,2.61
2022-08-04T23:28:30.567Z,2.48
2022-08-04T23:30:57.266Z,2.39
2022-08-04T23:33:24.194Z,2.21
2022-08-04T23:36:11.850Z,2.34
2022-08-04T23:38:39.208Z,2.14
2022-08-04T23:41:13.482Z,2.25
2022-08-04T23:43:55.447Z,2.26
2022-08-04T23:46:22.631Z,2.28
2022-08-04T23:48:49.280Z,2.36
2022-08-04T23:51:16.496Z,2.81
2022-08-04T23:54:03.724Z,2.19
2022-08-04T23:56:31.858Z,2.19
2022-08-04T23:58:58.576Z,2.19
